sensor_id;sensor_type;location;lat;lon;timestamp;temperature;humidity
75210;DHT22;63796;53.136;14.882;2022-09-27T00:01:55;11.90;99.90
75210;DHT22;63796;53.136;14.882;2022-09-27T00:04:22;11.90;99.90
75210;DHT22;63796;53.136;14.882;2022-09-27T00:06:49;11.90;99.90
75210;DHT22;63796;53.136;14.882;2022-09-27T00:09:16;11.80;99.90
75210;DHT22;63796;53.136;14.882;2022-09-27T00:11:42;11.80;99.90
75210;DHT22;63796;53.136;14.882;2022-09-27T00:14:11;11.80;99.90
75210;DHT22;63796;53.136;14.882;2022-09-27T00:16:40;11.80;99.90
75210;DHT22;63796;53.136;14.882;2022-09-27T00:19:14;11.80;99.90
75210;DHT22;63796;53.136;14.882;2022-09-27T00:21:43;11.80;99.90
75210;DHT22;63796;53.136;14.882;2022-09-27T00:24:13;11.80;99.90
75210;DHT22;63796;53.136;14.882;2022-09-27T00:26:42;11.70;99.90
75210;DHT22;63796;53.136;14.882;2022-09-27T00:29:09;11.60;99.90
75210;DHT22;63796;53.136;14.882;2022-09-27T00:31:37;11.60;99.90
75210;DHT22;63796;53.136;14.882;2022-09-27T00:34:05;11.60;99.90
75210;DHT22;63796;53.136;14.882;2022-09-27T00:36:33;11.60;99.90
75210;DHT22;63796;53.136;14.882;2022-09-27T00:39:00;11.50;99.90
75210;DHT22;63796;53.136;14.882;2022-09-27T00:41:30;11.50;99.90
75210;DHT22;63796;53.136;14.882;2022-09-27T00:44:00;11.50;99.90
75210;DHT22;63796;53.136;14.882;2022-09-27T00:46:35;11.50;99.90
75210;DHT22;63796;53.136;14.882;2022-09-27T00:52:01;11.60;99.90
75210;DHT22;63796;53.136;14.882;2022-09-27T00:54:32;11.60;99.90
75210;DHT22;63796;53.136;14.882;2022-09-27T00:57:02;11.60;99.90
75210;DHT22;63796;53.136;14.882;2022-09-27T01:00:20;11.60;99.90
75210;DHT22;63796;53.136;14.882;2022-09-27T01:02:08;11.60;99.90
75210;DHT22;63796;53.136;14.882;2022-09-27T01:04:36;11.60;99.90
75210;DHT22;63796;53.136;14.882;2022-09-27T01:07:05;11.60;99.90
75210;DHT22;63796;53.136;14.882;2022-09-27T01:09:32;11.60;99.90
75210;DHT22;63796;53.136;14.882;2022-09-27T01:17:44;11.50;99.90
75210;DHT22;63796;53.136;14.882;2022-09-27T01:20:28;11.60;99.90
75210;DHT22;63796;53.136;14.882;2022-09-27T01:26:41;11.60;99.90
75210;DHT22;63796;53.136;14.882;2022-09-27T01:32:37;11.50;99.90
75210;DHT22;63796;53.136;14.882;2022-09-27T01:40:57;11.40;99.90
75210;DHT22;63796;53.136;14.882;2022-09-27T01:43:49;11.40;99.90
75210;DHT22;63796;53.136;14.882;2022-09-27T01:46:24;11.30;99.90
75210;DHT22;63796;53.136;14.882;2022-09-27T01:48:53;11.30;99.90
75210;DHT22;63796;53.136;14.882;2022-09-27T01:51:36;11.30;99.90
75210;DHT22;63796;53.136;14.882;2022-09-27T01:54:05;11.20;99.90
75210;DHT22;63796;53.136;14.882;2022-09-27T01:56:45;11.20;99.90
75210;DHT22;63796;53.136;14.882;2022-09-27T01:59:22;11.20;99.90
75210;DHT22;63796;53.136;14.882;2022-09-27T02:01:54;11.10;99.90
75210;DHT22;63796;53.136;14.882;2022-09-27T02:04:27;11.10;99.90
75210;DHT22;63796;53.136;14.882;2022-09-27T02:07:00;11.10;99.90
75210;DHT22;63796;53.136;14.882;2022-09-27T02:09:38;11.00;99.90
75210;DHT22;63796;53.136;14.882;2022-09-27T02:12:15;11.10;99.90
75210;DHT22;63796;53.136;14.882;2022-09-27T02:14:54;11.10;99.90
75210;DHT22;63796;53.136;14.882;2022-09-27T02:17:37;11.10;99.90
75210;DHT22;63796;53.136;14.882;2022-09-27T02:22:59;11.10;99.90
75210;DHT22;63796;53.136;14.882;2022-09-27T02:25:54;11.10;99.90
75210;DHT22;63796;53.136;14.882;2022-09-27T02:28:42;11.10;99.90
75210;DHT22;63796;53.136;14.882;2022-09-27T02:31:13;11.10;99.90
75210;DHT22;63796;53.136;14.882;2022-09-27T02:36:15;11.00;99.90
75210;DHT22;63796;53.136;14.882;2022-09-27T02:38:43;11.10;99.90
75210;DHT22;63796;53.136;14.882;2022-09-27T02:41:18;11.00;99.90
75210;DHT22;63796;53.136;14.882;2022-09-27T02:43:58;11.10;99.90
75210;DHT22;63796;53.136;14.882;2022-09-27T02:58:33;10.90;99.90
75210;DHT22;63796;53.136;14.882;2022-09-27T03:01:11;10.90;99.90
75210;DHT22;63796;53.136;14.882;2022-09-27T03:03:49;10.90;99.90
75210;DHT22;63796;53.136;14.882;2022-09-27T03:06:20;10.90;99.90
75210;DHT22;63796;53.136;14.882;2022-09-27T03:08:48;10.90;99.90
75210;DHT22;63796;53.136;14.882;2022-09-27T03:11:17;10.90;99.90
75210;DHT22;63796;53.136;14.882;2022-09-27T03:13:44;10.80;99.90
75210;DHT22;63796;53.136;14.882;2022-09-27T03:16:11;10.90;99.90
75210;DHT22;63796;53.136;14.882;2022-09-27T03:18:38;10.90;99.90
75210;DHT22;63796;53.136;14.882;2022-09-27T03:21:05;11.00;99.90
75210;DHT22;63796;53.136;14.882;2022-09-27T03:23:32;11.00;99.90
75210;DHT22;63796;53.136;14.882;2022-09-27T03:25:59;11.10;99.90
75210;DHT22;63796;53.136;14.882;2022-09-27T03:28:26;11.00;99.90
75210;DHT22;63796;53.136;14.882;2022-09-27T03:30:55;11.00;99.90
75210;DHT22;63796;53.136;14.882;2022-09-27T03:33:21;11.00;99.90
75210;DHT22;63796;53.136;14.882;2022-09-27T03:35:49;11.10;99.90
75210;DHT22;63796;53.136;14.882;2022-09-27T03:38:16;11.10;99.90
75210;DHT22;63796;53.136;14.882;2022-09-27T03:40:43;11.10;99.90
75210;DHT22;63796;53.136;14.882;2022-09-27T03:43:10;11.00;99.90
75210;DHT22;63796;53.136;14.882;2022-09-27T03:45:37;11.10;99.90
75210;DHT22;63796;53.136;14.882;2022-09-27T03:48:04;11.10;99.90
75210;DHT22;63796;53.136;14.882;2022-09-27T03:50:30;11.10;99.90
75210;DHT22;63796;53.136;14.882;2022-09-27T03:52:57;11.10;99.90
75210;DHT22;63796;53.136;14.882;2022-09-27T03:55:24;11.10;99.90
75210;DHT22;63796;53.136;14.882;2022-09-27T03:57:51;11.10;99.90
75210;DHT22;63796;53.136;14.882;2022-09-27T04:00:20;11.20;99.90
75210;DHT22;63796;53.136;14.882;2022-09-27T04:02:48;11.20;99.90
75210;DHT22;63796;53.136;14.882;2022-09-27T04:05:15;11.10;99.90
75210;DHT22;63796;53.136;14.882;2022-09-27T04:07:47;11.10;99.90
75210;DHT22;63796;53.136;14.882;2022-09-27T04:10:14;11.10;99.90
75210;DHT22;63796;53.136;14.882;2022-09-27T04:12:43;11.10;99.90
75210;DHT22;63796;53.136;14.882;2022-09-27T04:15:10;11.10;99.90
75210;DHT22;63796;53.136;14.882;2022-09-27T04:17:42;11.10;99.90
75210;DHT22;63796;53.136;14.882;2022-09-27T04:20:10;11.20;99.90
75210;DHT22;63796;53.136;14.882;2022-09-27T04:22:40;11.20;99.90
75210;DHT22;63796;53.136;14.882;2022-09-27T04:25:09;11.20;99.90
75210;DHT22;63796;53.136;14.882;2022-09-27T04:27:37;11.20;99.90
75210;DHT22;63796;53.136;14.882;2022-09-27T04:30:06;11.20;99.90
75210;DHT22;63796;53.136;14.882;2022-09-27T04:32:34;11.20;99.90
75210;DHT22;63796;53.136;14.882;2022-09-27T04:35:07;11.20;99.90
75210;DHT22;63796;53.136;14.882;2022-09-27T04:37:53;11.20;99.90
75210;DHT22;63796;53.136;14.882;2022-09-27T04:40:19;11.20;99.90
75210;DHT22;63796;53.136;14.882;2022-09-27T04:42:48;11.20;99.90
75210;DHT22;63796;53.136;14.882;2022-09-27T04:45:16;11.10;99.90
75210;DHT22;63796;53.136;14.882;2022-09-27T04:47:48;11.10;99.90
75210;DHT22;63796;53.136;14.882;2022-09-27T04:50:16;11.10;99.90
75210;DHT22;63796;53.136;14.882;2022-09-27T04:52:43;11.10;99.90
75210;DHT22;63796;53.136;14.882;2022-09-27T04:55:12;11.10;99.90
75210;DHT22;63796;53.136;14.882;2022-09-27T04:57:39;11.10;99.90
75210;DHT22;63796;53.136;14.882;2022-09-27T05:00:07;11.20;99.90
75210;DHT22;63796;53.136;14.882;2022-09-27T05:02:35;11.10;99.90
75210;DHT22;63796;53.136;14.882;2022-09-27T05:05:01;11.10;99.90
75210;DHT22;63796;53.136;14.882;2022-09-27T05:07:28;11.30;99.90
75210;DHT22;63796;53.136;14.882;2022-09-27T05:09:55;11.30;99.90
75210;DHT22;63796;53.136;14.882;2022-09-27T05:12:22;11.30;99.90
75210;DHT22;63796;53.136;14.882;2022-09-27T05:14:52;11.20;99.90
75210;DHT22;63796;53.136;14.882;2022-09-27T05:17:19;11.20;99.90
75210;DHT22;63796;53.136;14.882;2022-09-27T05:19:48;11.30;99.90
75210;DHT22;63796;53.136;14.882;2022-09-27T05:22:15;11.20;99.90
75210;DHT22;63796;53.136;14.882;2022-09-27T05:24:42;11.20;99.90
75210;DHT22;63796;53.136;14.882;2022-09-27T05:27:11;11.30;99.90
75210;DHT22;63796;53.136;14.882;2022-09-27T05:29:41;11.30;99.90
75210;DHT22;63796;53.136;14.882;2022-09-27T05:32:08;11.30;99.90
75210;DHT22;63796;53.136;14.882;2022-09-27T05:34:34;11.30;99.90
75210;DHT22;63796;53.136;14.882;2022-09-27T05:37:01;11.30;99.90
75210;DHT22;63796;53.136;14.882;2022-09-27T05:39:28;11.30;99.90
75210;DHT22;63796;53.136;14.882;2022-09-27T05:41:55;11.30;99.90
75210;DHT22;63796;53.136;14.882;2022-09-27T05:44:22;11.30;99.90
75210;DHT22;63796;53.136;14.882;2022-09-27T05:46:51;11.30;99.90
75210;DHT22;63796;53.136;14.882;2022-09-27T05:49:18;11.40;99.90
75210;DHT22;63796;53.136;14.882;2022-09-27T05:51:45;11.40;99.90
75210;DHT22;63796;53.136;14.882;2022-09-27T05:54:12;11.40;99.90
75210;DHT22;63796;53.136;14.882;2022-09-27T05:56:39;11.40;99.90
75210;DHT22;63796;53.136;14.882;2022-09-27T05:59:06;11.50;99.90
75210;DHT22;63796;53.136;14.882;2022-09-27T06:01:33;11.40;99.90
75210;DHT22;63796;53.136;14.882;2022-09-27T06:04:02;11.40;99.90
75210;DHT22;63796;53.136;14.882;2022-09-27T06:06:30;11.40;99.90
75210;DHT22;63796;53.136;14.882;2022-09-27T06:08:59;11.40;99.90
75210;DHT22;63796;53.136;14.882;2022-09-27T06:11:27;11.50;99.90
75210;DHT22;63796;53.136;14.882;2022-09-27T06:13:54;11.50;99.90
75210;DHT22;63796;53.136;14.882;2022-09-27T06:16:21;11.50;99.90
75210;DHT22;63796;53.136;14.882;2022-09-27T06:18:48;11.60;99.90
75210;DHT22;63796;53.136;14.882;2022-09-27T06:21:15;11.60;99.90
75210;DHT22;63796;53.136;14.882;2022-09-27T06:23:42;11.60;99.90
75210;DHT22;63796;53.136;14.882;2022-09-27T06:26:09;11.60;99.90
75210;DHT22;63796;53.136;14.882;2022-09-27T06:28:37;11.60;99.90
75210;DHT22;63796;53.136;14.882;2022-09-27T06:31:07;11.60;99.90
75210;DHT22;63796;53.136;14.882;2022-09-27T06:33:36;11.70;99.90
75210;DHT22;63796;53.136;14.882;2022-09-27T06:36:04;11.70;99.90
75210;DHT22;63796;53.136;14.882;2022-09-27T06:38:32;11.70;99.90
75210;DHT22;63796;53.136;14.882;2022-09-27T06:41:01;11.70;99.90
75210;DHT22;63796;53.136;14.882;2022-09-27T06:43:28;11.80;99.90
75210;DHT22;63796;53.136;14.882;2022-09-27T06:45:58;11.80;99.90
75210;DHT22;63796;53.136;14.882;2022-09-27T06:48:32;11.70;99.90
75210;DHT22;63796;53.136;14.882;2022-09-27T06:50:59;11.70;99.90
75210;DHT22;63796;53.136;14.882;2022-09-27T06:53:26;11.70;99.90
75210;DHT22;63796;53.136;14.882;2022-09-27T06:56:01;11.70;99.90
75210;DHT22;63796;53.136;14.882;2022-09-27T06:58:28;11.60;99.90
75210;DHT22;63796;53.136;14.882;2022-09-27T07:01:13;11.60;99.90
75210;DHT22;63796;53.136;14.882;2022-09-27T07:03:42;11.60;99.90
75210;DHT22;63796;53.136;14.882;2022-09-27T07:06:19;11.70;99.90
75210;DHT22;63796;53.136;14.882;2022-09-27T07:08:52;11.60;99.90
75210;DHT22;63796;53.136;14.882;2022-09-27T07:11:17;11.60;99.90
75210;DHT22;63796;53.136;14.882;2022-09-27T07:13:45;11.60;99.90
75210;DHT22;63796;53.136;14.882;2022-09-27T07:16:13;11.70;99.90
75210;DHT22;63796;53.136;14.882;2022-09-27T07:18:41;11.80;99.90
75210;DHT22;63796;53.136;14.882;2022-09-27T07:21:08;11.90;99.90
75210;DHT22;63796;53.136;14.882;2022-09-27T07:23:36;12.00;99.90
75210;DHT22;63796;53.136;14.882;2022-09-27T07:26:04;11.90;99.90
75210;DHT22;63796;53.136;14.882;2022-09-27T07:28:32;12.00;99.90
75210;DHT22;63796;53.136;14.882;2022-09-27T07:31:00;12.00;99.90
75210;DHT22;63796;53.136;14.882;2022-09-27T07:33:29;12.10;99.90
75210;DHT22;63796;53.136;14.882;2022-09-27T07:35:57;12.10;99.90
75210;DHT22;63796;53.136;14.882;2022-09-27T07:38:24;12.20;99.90
75210;DHT22;63796;53.136;14.882;2022-09-27T07:40:51;12.30;99.90
75210;DHT22;63796;53.136;14.882;2022-09-27T07:43:18;12.40;99.90
75210;DHT22;63796;53.136;14.882;2022-09-27T07:45:45;12.50;99.90
75210;DHT22;63796;53.136;14.882;2022-09-27T07:48:14;12.50;99.90
75210;DHT22;63796;53.136;14.882;2022-09-27T07:50:42;12.60;99.90
75210;DHT22;63796;53.136;14.882;2022-09-27T07:53:09;12.50;99.90
75210;DHT22;63796;53.136;14.882;2022-09-27T07:55:38;12.10;99.90
75210;DHT22;63796;53.136;14.882;2022-09-27T07:58:10;12.00;99.90
75210;DHT22;63796;53.136;14.882;2022-09-27T08:00:38;11.90;99.90
75210;DHT22;63796;53.136;14.882;2022-09-27T08:03:07;12.00;99.90
75210;DHT22;63796;53.136;14.882;2022-09-27T08:05:42;12.00;99.90
75210;DHT22;63796;53.136;14.882;2022-09-27T08:08:10;12.00;99.90
75210;DHT22;63796;53.136;14.882;2022-09-27T08:10:37;11.70;99.90
75210;DHT22;63796;53.136;14.882;2022-09-27T08:13:06;11.90;99.90
75210;DHT22;63796;53.136;14.882;2022-09-27T08:15:33;11.90;99.90
75210;DHT22;63796;53.136;14.882;2022-09-27T08:18:06;11.90;99.90
75210;DHT22;63796;53.136;14.882;2022-09-27T08:20:36;12.00;99.90
75210;DHT22;63796;53.136;14.882;2022-09-27T08:23:03;12.20;99.90
75210;DHT22;63796;53.136;14.882;2022-09-27T08:25:30;12.30;99.90
75210;DHT22;63796;53.136;14.882;2022-09-27T08:27:58;12.30;99.90
75210;DHT22;63796;53.136;14.882;2022-09-27T08:30:27;12.50;99.90
75210;DHT22;63796;53.136;14.882;2022-09-27T08:32:57;12.50;99.90
75210;DHT22;63796;53.136;14.882;2022-09-27T08:35:25;12.60;99.90
75210;DHT22;63796;53.136;14.882;2022-09-27T08:37:55;12.60;99.90
75210;DHT22;63796;53.136;14.882;2022-09-27T08:40:50;12.60;99.90
75210;DHT22;63796;53.136;14.882;2022-09-27T08:46:50;12.80;99.90
75210;DHT22;63796;53.136;14.882;2022-09-27T08:49:40;13.00;99.90
75210;DHT22;63796;53.136;14.882;2022-09-27T08:52:19;13.40;99.90
75210;DHT22;63796;53.136;14.882;2022-09-27T08:54:45;13.40;99.90
75210;DHT22;63796;53.136;14.882;2022-09-27T08:57:14;13.30;99.90
75210;DHT22;63796;53.136;14.882;2022-09-27T09:02:34;13.70;99.90
75210;DHT22;63796;53.136;14.882;2022-09-27T09:05:13;14.80;99.90
75210;DHT22;63796;53.136;14.882;2022-09-27T09:26:16;15.70;99.90
75210;DHT22;63796;53.136;14.882;2022-09-27T09:35:00;15.00;99.90
75210;DHT22;63796;53.136;14.882;2022-09-27T09:37:38;14.20;99.90
75210;DHT22;63796;53.136;14.882;2022-09-27T09:40:13;13.90;99.90
75210;DHT22;63796;53.136;14.882;2022-09-27T09:43:01;13.70;99.90
75210;DHT22;63796;53.136;14.882;2022-09-27T09:45:48;14.00;99.90
75210;DHT22;63796;53.136;14.882;2022-09-27T09:48:29;14.00;99.90
75210;DHT22;63796;53.136;14.882;2022-09-27T09:51:04;13.90;99.90
75210;DHT22;63796;53.136;14.882;2022-09-27T09:53:44;13.90;99.90
75210;DHT22;63796;53.136;14.882;2022-09-27T09:56:35;13.60;99.90
75210;DHT22;63796;53.136;14.882;2022-09-27T09:59:16;13.30;99.90
75210;DHT22;63796;53.136;14.882;2022-09-27T10:01:46;13.20;99.90
75210;DHT22;63796;53.136;14.882;2022-09-27T10:04:28;13.20;99.90
75210;DHT22;63796;53.136;14.882;2022-09-27T10:06:55;13.20;99.90
75210;DHT22;63796;53.136;14.882;2022-09-27T10:09:26;12.90;99.90
75210;DHT22;63796;53.136;14.882;2022-09-27T10:11:54;12.60;99.90
75210;DHT22;63796;53.136;14.882;2022-09-27T10:14:21;12.50;99.90
75210;DHT22;63796;53.136;14.882;2022-09-27T10:16:57;12.70;99.90
75210;DHT22;63796;53.136;14.882;2022-09-27T10:19:30;13.70;99.90
75210;DHT22;63796;53.136;14.882;2022-09-27T10:22:02;13.60;99.90
75210;DHT22;63796;53.136;14.882;2022-09-27T10:24:57;13.80;99.90
75210;DHT22;63796;53.136;14.882;2022-09-27T10:27:49;13.40;99.90
75210;DHT22;63796;53.136;14.882;2022-09-27T10:32:56;13.20;99.90
75210;DHT22;63796;53.136;14.882;2022-09-27T10:35:38;13.20;99.90
75210;DHT22;63796;53.136;14.882;2022-09-27T10:40:50;13.30;99.90
75210;DHT22;63796;53.136;14.882;2022-09-27T10:43:25;13.50;99.90
75210;DHT22;63796;53.136;14.882;2022-09-27T10:46:03;13.40;99.90
75210;DHT22;63796;53.136;14.882;2022-09-27T10:48:39;13.40;99.90
75210;DHT22;63796;53.136;14.882;2022-09-27T10:51:29;13.60;99.90
75210;DHT22;63796;53.136;14.882;2022-09-27T10:53:57;13.90;99.90
75210;DHT22;63796;53.136;14.882;2022-09-27T10:56:31;14.00;99.90
75210;DHT22;63796;53.136;14.882;2022-09-27T10:58:59;14.30;99.90
75210;DHT22;63796;53.136;14.882;2022-09-27T11:01:41;14.90;99.90
75210;DHT22;63796;53.136;14.882;2022-09-27T11:04:28;14.90;99.90
75210;DHT22;63796;53.136;14.882;2022-09-27T11:07:20;14.90;99.90
75210;DHT22;63796;53.136;14.882;2022-09-27T11:09:54;14.80;99.90
75210;DHT22;63796;53.136;14.882;2022-09-27T11:12:30;14.30;99.90
75210;DHT22;63796;53.136;14.882;2022-09-27T11:15:02;13.90;99.90
75210;DHT22;63796;53.136;14.882;2022-09-27T11:20:24;14.00;99.90
75210;DHT22;63796;53.136;14.882;2022-09-27T11:25:34;14.20;99.90
75210;DHT22;63796;53.136;14.882;2022-09-27T11:28:37;14.50;99.90
75210;DHT22;63796;53.136;14.882;2022-09-27T11:31:07;14.60;99.90
75210;DHT22;63796;53.136;14.882;2022-09-27T11:48:11;14.10;99.90
75210;DHT22;63796;53.136;14.882;2022-09-27T11:51:06;14.10;99.90
75210;DHT22;63796;53.136;14.882;2022-09-27T11:53:47;14.00;99.90
75210;DHT22;63796;53.136;14.882;2022-09-27T12:05:07;14.30;99.90
75210;DHT22;63796;53.136;14.882;2022-09-27T12:07:48;14.20;99.90
75210;DHT22;63796;53.136;14.882;2022-09-27T12:10:17;14.10;99.90
75210;DHT22;63796;53.136;14.882;2022-09-27T12:12:52;14.20;99.90
75210;DHT22;63796;53.136;14.882;2022-09-27T12:15:26;14.30;99.90
75210;DHT22;63796;53.136;14.882;2022-09-27T12:18:00;14.20;99.90
75210;DHT22;63796;53.136;14.882;2022-09-27T12:20:34;14.40;99.90
75210;DHT22;63796;53.136;14.882;2022-09-27T12:23:09;14.40;99.90
75210;DHT22;63796;53.136;14.882;2022-09-27T12:26:03;14.50;99.90
75210;DHT22;63796;53.136;14.882;2022-09-27T12:34:43;14.10;99.90
75210;DHT22;63796;53.136;14.882;2022-09-27T12:40:24;13.80;99.90
75210;DHT22;63796;53.136;14.882;2022-09-27T12:45:38;13.80;99.90
75210;DHT22;63796;53.136;14.882;2022-09-27T13:13:32;14.10;99.90
75210;DHT22;63796;53.136;14.882;2022-09-27T13:16:00;14.20;99.90
75210;DHT22;63796;53.136;14.882;2022-09-27T13:35:39;14.20;99.90
75210;DHT22;63796;53.136;14.882;2022-09-27T13:38:19;14.30;99.90
75210;DHT22;63796;53.136;14.882;2022-09-27T13:40:49;14.40;99.90
75210;DHT22;63796;53.136;14.882;2022-09-27T13:46:18;14.50;99.90
75210;DHT22;63796;53.136;14.882;2022-09-27T13:51:59;14.40;99.90
75210;DHT22;63796;53.136;14.882;2022-09-27T13:54:54;14.20;99.90
75210;DHT22;63796;53.136;14.882;2022-09-27T13:57:42;14.20;99.90
75210;DHT22;63796;53.136;14.882;2022-09-27T14:00:22;14.40;99.90
75210;DHT22;63796;53.136;14.882;2022-09-27T14:05:37;14.50;99.90
75210;DHT22;63796;53.136;14.882;2022-09-27T14:08:13;14.50;99.90
75210;DHT22;63796;53.136;14.882;2022-09-27T14:10:42;14.40;99.90
75210;DHT22;63796;53.136;14.882;2022-09-27T14:16:02;14.50;99.90
75210;DHT22;63796;53.136;14.882;2022-09-27T14:18:32;14.50;99.90
75210;DHT22;63796;53.136;14.882;2022-09-27T14:21:26;14.40;99.90
75210;DHT22;63796;53.136;14.882;2022-09-27T14:24:19;14.30;99.90
75210;DHT22;63796;53.136;14.882;2022-09-27T14:29:58;14.40;99.90
75210;DHT22;63796;53.136;14.882;2022-09-27T14:32:31;14.50;99.90
75210;DHT22;63796;53.136;14.882;2022-09-27T14:35:14;14.70;99.90
75210;DHT22;63796;53.136;14.882;2022-09-27T14:38:03;14.70;99.90
75210;DHT22;63796;53.136;14.882;2022-09-27T14:40:54;14.70;99.90
75210;DHT22;63796;53.136;14.882;2022-09-27T14:43:25;14.80;99.90
75210;DHT22;63796;53.136;14.882;2022-09-27T14:45:58;14.70;99.90
75210;DHT22;63796;53.136;14.882;2022-09-27T14:48:33;14.40;99.90
75210;DHT22;63796;53.136;14.882;2022-09-27T14:51:14;14.20;99.90
75210;DHT22;63796;53.136;14.882;2022-09-27T14:53:49;14.10;99.90
75210;DHT22;63796;53.136;14.882;2022-09-27T14:56:24;13.90;99.90
75210;DHT22;63796;53.136;14.882;2022-09-27T14:58:58;13.80;99.90
75210;DHT22;63796;53.136;14.882;2022-09-27T15:01:31;13.60;99.90
75210;DHT22;63796;53.136;14.882;2022-09-27T15:04:10;13.60;99.90
75210;DHT22;63796;53.136;14.882;2022-09-27T15:06:39;13.60;99.90
75210;DHT22;63796;53.136;14.882;2022-09-27T15:09:13;13.60;99.90
75210;DHT22;63796;53.136;14.882;2022-09-27T15:11:42;13.40;99.90
75210;DHT22;63796;53.136;14.882;2022-09-27T15:14:14;13.10;99.90
75210;DHT22;63796;53.136;14.882;2022-09-27T15:16:44;12.90;99.90
75210;DHT22;63796;53.136;14.882;2022-09-27T15:19:15;13.00;99.90
75210;DHT22;63796;53.136;14.882;2022-09-27T15:21:44;13.10;99.90
75210;DHT22;63796;53.136;14.882;2022-09-27T15:27:18;13.30;99.90
75210;DHT22;63796;53.136;14.882;2022-09-27T15:29:50;13.20;99.90
75210;DHT22;63796;53.136;14.882;2022-09-27T15:32:20;13.20;99.90
75210;DHT22;63796;53.136;14.882;2022-09-27T15:34:50;13.30;99.90
75210;DHT22;63796;53.136;14.882;2022-09-27T15:42:56;13.00;99.90
75210;DHT22;63796;53.136;14.882;2022-09-27T15:45:33;13.10;99.90
75210;DHT22;63796;53.136;14.882;2022-09-27T15:48:16;13.00;99.90
75210;DHT22;63796;53.136;14.882;2022-09-27T15:50:46;12.90;99.90
75210;DHT22;63796;53.136;14.882;2022-09-27T15:56:04;12.90;99.90
75210;DHT22;63796;53.136;14.882;2022-09-27T15:58:33;12.90;99.90
75210;DHT22;63796;53.136;14.882;2022-09-27T16:01:03;13.00;99.90
75210;DHT22;63796;53.136;14.882;2022-09-27T16:03:31;13.00;99.90
75210;DHT22;63796;53.136;14.882;2022-09-27T16:06:00;12.70;99.90
75210;DHT22;63796;53.136;14.882;2022-09-27T16:08:29;12.60;99.90
75210;DHT22;63796;53.136;14.882;2022-09-27T16:10:57;12.30;99.90
75210;DHT22;63796;53.136;14.882;2022-09-27T16:13:26;12.20;99.90
75210;DHT22;63796;53.136;14.882;2022-09-27T16:15:53;12.20;99.90
75210;DHT22;63796;53.136;14.882;2022-09-27T16:18:20;12.20;99.90
75210;DHT22;63796;53.136;14.882;2022-09-27T16:20:47;12.30;99.90
75210;DHT22;63796;53.136;14.882;2022-09-27T16:23:14;12.10;99.90
75210;DHT22;63796;53.136;14.882;2022-09-27T16:25:41;12.00;99.90
75210;DHT22;63796;53.136;14.882;2022-09-27T16:28:09;12.00;99.90
75210;DHT22;63796;53.136;14.882;2022-09-27T16:30:36;12.10;99.90
75210;DHT22;63796;53.136;14.882;2022-09-27T16:33:03;12.10;99.90
75210;DHT22;63796;53.136;14.882;2022-09-27T16:35:30;11.90;99.90
75210;DHT22;63796;53.136;14.882;2022-09-27T16:37:57;12.10;99.90
75210;DHT22;63796;53.136;14.882;2022-09-27T16:40:24;11.90;99.90
75210;DHT22;63796;53.136;14.882;2022-09-27T16:42:53;11.90;99.90
75210;DHT22;63796;53.136;14.882;2022-09-27T16:45:20;11.70;99.90
75210;DHT22;63796;53.136;14.882;2022-09-27T16:47:47;11.70;99.90
75210;DHT22;63796;53.136;14.882;2022-09-27T16:50:14;11.70;99.90
75210;DHT22;63796;53.136;14.882;2022-09-27T16:52:59;11.70;99.90
75210;DHT22;63796;53.136;14.882;2022-09-27T16:55:26;11.60;99.90
75210;DHT22;63796;53.136;14.882;2022-09-27T16:57:56;11.50;99.90
75210;DHT22;63796;53.136;14.882;2022-09-27T17:00:25;11.50;99.90
75210;DHT22;63796;53.136;14.882;2022-09-27T17:02:52;11.40;99.90
75210;DHT22;63796;53.136;14.882;2022-09-27T17:05:22;11.20;99.90
75210;DHT22;63796;53.136;14.882;2022-09-27T17:07:53;11.30;99.90
75210;DHT22;63796;53.136;14.882;2022-09-27T17:10:21;11.20;99.90
75210;DHT22;63796;53.136;14.882;2022-09-27T17:12:48;11.10;99.90
75210;DHT22;63796;53.136;14.882;2022-09-27T17:15:15;11.10;99.90
75210;DHT22;63796;53.136;14.882;2022-09-27T17:17:43;11.10;99.90
75210;DHT22;63796;53.136;14.882;2022-09-27T17:20:15;11.10;99.90
75210;DHT22;63796;53.136;14.882;2022-09-27T17:22:42;11.10;99.90
75210;DHT22;63796;53.136;14.882;2022-09-27T17:25:09;11.00;99.90
75210;DHT22;63796;53.136;14.882;2022-09-27T17:27:36;11.00;99.90
75210;DHT22;63796;53.136;14.882;2022-09-27T17:30:03;11.00;99.90
75210;DHT22;63796;53.136;14.882;2022-09-27T17:32:31;11.00;99.90
75210;DHT22;63796;53.136;14.882;2022-09-27T17:34:59;10.90;99.90
75210;DHT22;63796;53.136;14.882;2022-09-27T17:37:26;10.90;99.90
75210;DHT22;63796;53.136;14.882;2022-09-27T17:39:53;10.90;99.90
75210;DHT22;63796;53.136;14.882;2022-09-27T17:42:20;10.80;99.90
75210;DHT22;63796;53.136;14.882;2022-09-27T17:44:49;10.80;99.90
75210;DHT22;63796;53.136;14.882;2022-09-27T17:47:15;10.80;99.90
75210;DHT22;63796;53.136;14.882;2022-09-27T17:50:00;10.80;99.90
75210;DHT22;63796;53.136;14.882;2022-09-27T17:52:46;10.80;99.90
75210;DHT22;63796;53.136;14.882;2022-09-27T17:55:13;10.80;99.90
75210;DHT22;63796;53.136;14.882;2022-09-27T17:57:40;10.70;99.90
75210;DHT22;63796;53.136;14.882;2022-09-27T18:00:07;10.60;99.90
75210;DHT22;63796;53.136;14.882;2022-09-27T18:02:35;10.60;99.90
75210;DHT22;63796;53.136;14.882;2022-09-27T18:05:02;10.60;99.90
75210;DHT22;63796;53.136;14.882;2022-09-27T18:07:30;10.60;99.90
75210;DHT22;63796;53.136;14.882;2022-09-27T18:09:58;10.60;99.90
75210;DHT22;63796;53.136;14.882;2022-09-27T18:12:27;10.50;99.90
75210;DHT22;63796;53.136;14.882;2022-09-27T18:14:58;10.50;99.90
75210;DHT22;63796;53.136;14.882;2022-09-27T18:17:25;10.50;99.90
75210;DHT22;63796;53.136;14.882;2022-09-27T18:19:53;10.40;99.90
75210;DHT22;63796;53.136;14.882;2022-09-27T18:22:23;10.50;99.90
75210;DHT22;63796;53.136;14.882;2022-09-27T18:24:54;10.60;99.90
75210;DHT22;63796;53.136;14.882;2022-09-27T18:27:25;10.60;99.90
75210;DHT22;63796;53.136;14.882;2022-09-27T18:29:52;10.70;99.90
75210;DHT22;63796;53.136;14.882;2022-09-27T18:32:19;10.70;99.90
75210;DHT22;63796;53.136;14.882;2022-09-27T18:34:46;10.80;99.90
75210;DHT22;63796;53.136;14.882;2022-09-27T18:37:13;10.80;99.90
75210;DHT22;63796;53.136;14.882;2022-09-27T18:39:40;10.90;99.90
75210;DHT22;63796;53.136;14.882;2022-09-27T18:42:07;10.90;99.90
75210;DHT22;63796;53.136;14.882;2022-09-27T18:44:34;10.90;99.90
75210;DHT22;63796;53.136;14.882;2022-09-27T18:47:01;11.00;99.90